createdAt,value
2019-05-23T00:02:33.052Z,78.90
2019-05-23T00:05:03.652Z,79.30
2019-05-23T00:07:33.140Z,79.40
2019-05-23T00:10:03.351Z,80.60
2019-05-23T00:12:42.356Z,80.40
2019-05-23T00:15:18.539Z,80.60
2019-05-23T00:17:48.635Z,80.90
2019-05-23T00:20:18.675Z,79.80
2019-05-23T00:22:47.845Z,79.50
2019-05-23T00:25:17.479Z,79.50
2019-05-23T00:27:47.320Z,79.20
2019-05-23T00:30:23.878Z,79.00
2019-05-23T00:32:56.217Z,79.60
2019-05-23T00:35:26.677Z,79.10
2019-05-23T00:37:55.663Z,79.40
2019-05-23T00:40:24.436Z,80.50
2019-05-23T00:42:53.558Z,79.80
2019-05-23T00:45:23.247Z,79.60
2019-05-23T00:47:53.286Z,80.40
2019-05-23T00:50:24.132Z,80.00
2019-05-23T00:52:53.896Z,79.80
2019-05-23T00:55:24.015Z,80.00
2019-05-23T00:57:52.843Z,79.80
2019-05-23T01:00:22.798Z,80.00
2019-05-23T01:02:53.850Z,80.10
2019-05-23T01:05:23.094Z,80.50
2019-05-23T01:07:52.474Z,80.50
2019-05-23T01:10:22.819Z,80.40
2019-05-23T01:12:51.764Z,80.30
2019-05-23T01:15:21.998Z,80.50
2019-05-23T01:17:51.286Z,80.50
2019-05-23T01:20:24.853Z,80.60
2019-05-23T01:22:54.754Z,81.10
2019-05-23T01:25:24.167Z,81.20
2019-05-23T01:27:54.396Z,81.40
2019-05-23T01:30:27.395Z,81.90
2019-05-23T01:32:57.872Z,82.20
2019-05-23T01:35:29.677Z,82.10
2019-05-23T01:37:58.463Z,82.70
2019-05-23T01:40:27.693Z,83.00
2019-05-23T01:42:57.207Z,83.80
2019-05-23T01:45:26.633Z,83.50
2019-05-23T01:47:56.463Z,83.90
2019-05-23T01:50:26.617Z,84.20
2019-05-23T01:52:55.828Z,84.40
2019-05-23T01:55:24.547Z,84.70
2019-05-23T01:57:53.631Z,84.40
2019-05-23T02:00:24.697Z,84.70
2019-05-23T02:02:57.333Z,84.60
2019-05-23T02:05:27.073Z,85.40
2019-05-23T02:07:56.745Z,84.90
2019-05-23T02:10:25.632Z,85.80
2019-05-23T02:12:55.698Z,86.30
2019-05-23T02:15:24.658Z,86.20
2019-05-23T02:17:54.138Z,86.30
2019-05-23T02:20:23.463Z,86.60
2019-05-23T02:22:53.058Z,86.90
2019-05-23T02:25:23.922Z,87.10
2019-05-23T02:27:54.520Z,87.30
2019-05-23T02:30:35.375Z,87.60
2019-05-23T02:32:55.760Z,87.70
2019-05-23T02:35:24.531Z,88.20
2019-05-23T02:37:54.829Z,87.80
2019-05-23T02:40:28.235Z,88.30
2019-05-23T02:42:58.502Z,88.60
2019-05-23T02:45:47.513Z,88.50
2019-05-23T02:48:18.678Z,88.90
2019-05-23T02:50:53.247Z,88.50
2019-05-23T02:53:26.552Z,88.30
2019-05-23T02:55:58.639Z,89.10
2019-05-23T02:58:33.755Z,89.00
2019-05-23T03:01:20.717Z,89.20
2019-05-23T03:03:50.934Z,89.50
2019-05-23T03:06:19.560Z,89.70
2019-05-23T03:08:48.777Z,89.10
2019-05-23T03:11:27.038Z,88.90
2019-05-23T03:14:00.670Z,89.30
2019-05-23T03:16:31.871Z,89.60
2019-05-23T03:19:05.980Z,89.80
2019-05-23T03:21:36.398Z,90.00
2019-05-23T03:24:06.923Z,90.00
2019-05-23T03:26:41.444Z,90.00
2019-05-23T03:29:11.882Z,90.00
2019-05-23T03:31:43.372Z,90.20
2019-05-23T03:34:12.906Z,90.20
2019-05-23T03:36:42.562Z,90.10
2019-05-23T03:39:13.169Z,89.80
2019-05-23T03:41:42.791Z,90.00
2019-05-23T03:44:12.403Z,90.00
2019-05-23T03:46:43.327Z,90.00
2019-05-23T03:49:14.058Z,89.70
2019-05-23T03:51:45.121Z,89.90
2019-05-23T03:54:15.341Z,89.60
2019-05-23T03:56:46.034Z,89.30
2019-05-23T03:59:15.929Z,89.20
2019-05-23T04:01:48.525Z,90.00
2019-05-23T04:04:16.360Z,89.80
2019-05-23T04:06:47.665Z,90.00
2019-05-23T04:09:16.725Z,90.20
2019-05-23T04:11:46.009Z,90.40
2019-05-23T04:14:15.359Z,90.50
2019-05-23T04:16:44.559Z,90.50
2019-05-23T04:19:13.505Z,90.40
2019-05-23T04:21:43.091Z,90.40
2019-05-23T04:24:12.358Z,90.30
2019-05-23T04:26:42.922Z,90.50
2019-05-23T04:29:12.188Z,90.40
2019-05-23T04:31:41.938Z,90.30
2019-05-23T04:34:11.185Z,90.20
2019-05-23T04:36:40.612Z,90.20
2019-05-23T04:39:10.808Z,90.10
2019-05-23T04:41:40.015Z,90.10
2019-05-23T04:44:11.315Z,90.10
2019-05-23T04:46:40.568Z,90.10
2019-05-23T04:49:09.980Z,90.10
2019-05-23T04:51:40.096Z,90.10
2019-05-23T04:54:09.406Z,90.00
2019-05-23T04:56:38.593Z,89.70
2019-05-23T04:59:08.511Z,89.30
2019-05-23T05:01:40.737Z,89.40
2019-05-23T05:04:10.102Z,89.40
2019-05-23T05:06:40.961Z,89.30
2019-05-23T05:09:11.472Z,89.30
2019-05-23T05:11:40.755Z,89.00
2019-05-23T05:14:09.882Z,88.80
2019-05-23T05:16:39.150Z,89.20
2019-05-23T05:19:09.618Z,88.50
2019-05-23T05:21:39.674Z,87.90
2019-05-23T05:24:08.919Z,87.60
2019-05-23T05:26:38.023Z,87.40
2019-05-23T05:29:08.422Z,86.70
2019-05-23T05:31:37.537Z,86.50
2019-05-23T05:34:06.894Z,86.20
2019-05-23T05:36:36.077Z,85.70
2019-05-23T05:39:08.195Z,85.30
2019-05-23T05:41:38.014Z,85.40
2019-05-23T05:44:07.089Z,85.70
2019-05-23T05:46:36.721Z,85.10
2019-05-23T05:49:06.055Z,84.10
2019-05-23T05:51:35.462Z,82.50
2019-05-23T05:54:05.311Z,81.90
2019-05-23T05:56:34.656Z,81.50
2019-05-23T05:59:03.778Z,81.70
2019-05-23T06:01:34.643Z,81.30
2019-05-23T06:04:06.567Z,81.30
2019-05-23T06:06:37.851Z,81.00
2019-05-23T06:09:09.671Z,81.00
2019-05-23T06:11:40.359Z,81.10
2019-05-23T06:14:09.689Z,81.50
2019-05-23T06:16:38.944Z,81.10
2019-05-23T06:19:08.324Z,80.50
2019-05-23T06:21:40.612Z,80.80
2019-05-23T06:24:09.768Z,79.90
2019-05-23T06:26:42.061Z,79.60
2019-05-23T06:29:11.702Z,79.10
2019-05-23T06:31:43.290Z,78.00
2019-05-23T06:34:12.996Z,77.30
2019-05-23T06:36:42.789Z,77.40
2019-05-23T06:39:13.577Z,76.90
2019-05-23T06:41:42.993Z,77.10
2019-05-23T06:44:12.901Z,77.00
2019-05-23T06:46:42.053Z,76.40
2019-05-23T06:49:11.166Z,75.40
2019-05-23T06:51:41.520Z,75.50
2019-05-23T06:54:11.444Z,74.70
2019-05-23T06:56:40.639Z,74.00
2019-05-23T06:59:09.920Z,72.80
2019-05-23T07:01:39.125Z,72.90
2019-05-23T07:04:08.477Z,72.10
2019-05-23T07:06:37.966Z,71.00
2019-05-23T07:09:09.949Z,70.60
2019-05-23T07:11:39.238Z,68.60
2019-05-23T07:14:08.586Z,68.30
2019-05-23T07:16:39.223Z,68.10
2019-05-23T07:19:08.285Z,68.70
2019-05-23T07:21:39.342Z,67.70
2019-05-23T07:24:09.013Z,67.80
2019-05-23T07:26:38.449Z,67.20
2019-05-23T07:29:10.191Z,65.90
2019-05-23T07:31:39.654Z,66.80
2019-05-23T07:34:08.931Z,66.10
2019-05-23T07:36:40.226Z,66.80
2019-05-23T07:39:11.646Z,66.10
2019-05-23T07:41:40.861Z,66.40
2019-05-23T07:44:10.123Z,64.40
2019-05-23T07:46:39.398Z,65.50
2019-05-23T07:49:08.505Z,63.30
2019-05-23T07:51:37.785Z,63.70
2019-05-23T07:54:20.740Z,62.70
2019-05-23T07:56:50.123Z,62.90
2019-05-23T07:59:19.346Z,62.30
2019-05-23T08:01:51.056Z,62.00
2019-05-23T08:04:22.482Z,62.80
2019-05-23T08:06:53.054Z,61.00
2019-05-23T08:09:24.115Z,59.20
2019-05-23T08:11:53.308Z,58.90
2019-05-23T08:14:22.885Z,59.50
2019-05-23T08:16:53.051Z,58.80
2019-05-23T08:19:22.782Z,58.50
2019-05-23T08:21:51.919Z,57.60
2019-05-23T08:24:21.859Z,56.80
2019-05-23T08:26:51.324Z,55.80
2019-05-23T08:29:27.690Z,57.40
2019-05-23T08:31:51.546Z,56.60
2019-05-23T08:34:40.035Z,55.70
2019-05-23T08:36:53.292Z,55.20
2019-05-23T08:39:24.800Z,55.20
2019-05-23T08:41:53.957Z,55.40
2019-05-23T08:44:23.259Z,53.00
2019-05-23T08:46:52.164Z,53.60
2019-05-23T08:49:22.201Z,51.90
2019-05-23T08:51:51.547Z,51.70
2019-05-23T08:54:20.718Z,49.90
2019-05-23T08:56:49.569Z,47.00
2019-05-23T08:59:20.621Z,45.70
2019-05-23T09:01:49.650Z,46.30
2019-05-23T09:04:18.962Z,44.00
2019-05-23T09:06:49.136Z,42.00
2019-05-23T09:09:28.930Z,41.70
2019-05-23T09:11:51.826Z,42.60
2019-05-23T09:14:22.652Z,41.40
2019-05-23T09:16:52.162Z,40.70
2019-05-23T09:19:21.390Z,40.90
2019-05-23T09:21:56.938Z,38.80
2019-05-23T09:24:21.389Z,38.90
2019-05-23T09:26:51.059Z,36.80
2019-05-23T09:29:20.436Z,36.60
2019-05-23T09:31:49.426Z,37.30
2019-05-23T09:34:18.724Z,36.70
2019-05-23T09:36:48.026Z,37.40
2019-05-23T09:39:18.882Z,36.10
2019-05-23T09:41:47.206Z,35.00
2019-05-23T09:44:16.593Z,35.60
2019-05-23T09:46:45.461Z,34.20
2019-05-23T09:49:13.911Z,33.60
2019-05-23T09:51:43.175Z,33.20
2019-05-23T09:54:12.643Z,33.00
2019-05-23T09:56:41.849Z,32.80
2019-05-23T09:59:10.353Z,33.50
2019-05-23T10:01:38.700Z,32.70
2019-05-23T10:04:08.059Z,31.60
2019-05-23T10:06:36.486Z,29.90
2019-05-23T10:09:08.011Z,29.80
2019-05-23T10:11:37.275Z,29.90
2019-05-23T10:14:07.949Z,30.20
2019-05-23T10:16:36.611Z,29.90
2019-05-23T10:19:05.135Z,30.70
2019-05-23T10:21:33.660Z,30.10
2019-05-23T10:24:01.869Z,30.70
2019-05-23T10:26:30.015Z,31.00
2019-05-23T10:28:59.576Z,30.30
2019-05-23T10:31:28.150Z,30.50
2019-05-23T10:33:56.355Z,31.00
2019-05-23T10:36:25.399Z,30.40
2019-05-23T10:38:54.259Z,30.40
2019-05-23T10:41:22.558Z,29.20
2019-05-23T10:43:51.699Z,29.70
2019-05-23T10:46:21.105Z,29.30
2019-05-23T10:48:50.183Z,30.10
2019-05-23T10:51:18.275Z,30.00
2019-05-23T10:53:46.740Z,29.00
2019-05-23T10:56:20.016Z,28.00
2019-05-23T10:58:45.454Z,27.80
2019-05-23T11:01:13.948Z,28.50
2019-05-23T11:03:42.594Z,28.70
2019-05-23T11:06:16.269Z,27.50
2019-05-23T11:08:42.512Z,28.90
2019-05-23T11:11:14.311Z,28.50
2019-05-23T11:13:42.221Z,29.10
2019-05-23T11:16:13.372Z,30.20
2019-05-23T11:18:41.828Z,30.00
2019-05-23T11:21:10.050Z,29.20
2019-05-23T11:23:43.590Z,30.00
2019-05-23T11:26:12.081Z,29.80
2019-05-23T11:28:41.884Z,28.20
2019-05-23T11:31:10.755Z,28.60
2019-05-23T11:33:39.286Z,29.40
2019-05-23T11:36:07.374Z,29.60
2019-05-23T11:38:36.877Z,30.40
2019-05-23T11:41:05.010Z,30.00
2019-05-23T11:43:34.151Z,29.40
2019-05-23T11:46:06.535Z,28.90
2019-05-23T11:48:36.171Z,29.10
2019-05-23T11:51:12.824Z,28.90
2019-05-23T11:53:45.420Z,28.50
2019-05-23T11:56:12.734Z,27.90
2019-05-23T11:58:41.869Z,28.60
2019-05-23T12:01:20.950Z,28.60
2019-05-23T12:03:55.550Z,28.10
2019-05-23T12:06:26.721Z,27.60
2019-05-23T12:08:57.384Z,27.40
2019-05-23T12:11:28.320Z,27.20
2019-05-23T12:13:58.903Z,27.80
2019-05-23T12:16:28.955Z,28.30
2019-05-23T12:18:59.972Z,27.40
2019-05-23T12:21:28.192Z,29.40
2019-05-23T12:23:58.722Z,29.10
2019-05-23T12:26:28.756Z,29.20
2019-05-23T12:28:57.839Z,30.00
2019-05-23T12:31:26.967Z,28.50
2019-05-23T12:33:56.304Z,29.00
2019-05-23T12:36:25.848Z,26.30
2019-05-23T12:38:55.142Z,26.50
2019-05-23T12:41:24.369Z,26.00
2019-05-23T12:43:53.777Z,27.90
2019-05-23T12:46:23.179Z,26.00
2019-05-23T12:49:03.062Z,25.50
2019-05-23T12:51:37.453Z,26.20
2019-05-23T12:54:06.794Z,27.30
2019-05-23T12:56:36.456Z,26.40
2019-05-23T12:59:06.159Z,25.80
2019-05-23T13:01:37.037Z,25.00
2019-05-23T13:04:10.182Z,24.90
2019-05-23T13:06:37.581Z,25.50
2019-05-23T13:09:09.313Z,24.90
2019-05-23T13:11:39.014Z,24.90
2019-05-23T13:14:09.037Z,24.80
2019-05-23T13:16:38.196Z,24.40
2019-05-23T13:19:08.473Z,24.10
2019-05-23T13:21:39.116Z,23.70
2019-05-23T13:24:08.274Z,24.00
2019-05-23T13:26:38.932Z,24.10
2019-05-23T13:29:09.538Z,24.00
2019-05-23T13:31:38.806Z,24.60
2019-05-23T13:34:08.035Z,25.70
2019-05-23T13:36:37.032Z,26.20
2019-05-23T13:39:10.042Z,27.50
2019-05-23T13:41:39.196Z,28.60
2019-05-23T13:44:08.293Z,29.00
2019-05-23T13:46:37.799Z,29.70
2019-05-23T13:49:09.008Z,30.00
2019-05-23T13:51:38.334Z,30.00
2019-05-23T13:54:07.555Z,30.90
2019-05-23T13:56:36.819Z,31.30
2019-05-23T13:59:06.599Z,32.00
2019-05-23T14:01:36.017Z,31.20
2019-05-23T14:04:06.043Z,33.10
2019-05-23T14:06:35.200Z,32.70
2019-05-23T14:09:05.587Z,33.00
2019-05-23T14:11:34.576Z,32.50
2019-05-23T14:14:04.074Z,33.60
2019-05-23T14:16:35.141Z,32.90
2019-05-23T14:19:05.860Z,32.70
2019-05-23T14:21:36.578Z,33.30
2019-05-23T14:24:06.435Z,32.30
2019-05-23T14:26:40.221Z,31.00
2019-05-23T14:29:09.254Z,30.00
2019-05-23T14:31:58.945Z,29.30
2019-05-23T14:34:29.387Z,28.30
2019-05-23T14:37:00.213Z,27.40
2019-05-23T14:39:34.307Z,27.50
2019-05-23T14:42:07.929Z,26.90
2019-05-23T14:44:38.361Z,26.70
2019-05-23T14:47:12.379Z,26.80
2019-05-23T14:49:59.656Z,26.30
2019-05-23T14:52:33.274Z,26.50
2019-05-23T14:55:03.945Z,26.40
2019-05-23T14:57:33.758Z,26.00
2019-05-23T15:00:02.889Z,25.60
2019-05-23T15:02:35.039Z,25.00
2019-05-23T15:05:08.017Z,25.30
2019-05-23T15:07:37.117Z,24.90
2019-05-23T15:10:10.624Z,26.10
2019-05-23T15:12:41.252Z,25.20
2019-05-23T15:15:09.290Z,25.40
2019-05-23T15:17:38.453Z,25.20
2019-05-23T15:20:08.897Z,26.30
2019-05-23T15:22:38.178Z,27.30
2019-05-23T15:25:08.665Z,27.10
2019-05-23T15:27:38.690Z,27.10
2019-05-23T15:30:08.354Z,27.20
2019-05-23T15:32:37.195Z,27.10
2019-05-23T15:35:06.789Z,27.40
2019-05-23T15:37:38.744Z,28.50
2019-05-23T15:40:06.681Z,28.90
2019-05-23T15:42:35.768Z,29.70
2019-05-23T15:45:06.843Z,29.30
2019-05-23T15:47:36.792Z,29.50
2019-05-23T15:50:11.682Z,30.50
2019-05-23T15:52:42.746Z,29.80
2019-05-23T15:55:28.314Z,30.00
2019-05-23T15:58:06.274Z,30.00
2019-05-23T16:00:52.785Z,30.40
2019-05-23T16:03:23.357Z,30.20
2019-05-23T16:05:52.556Z,29.90
2019-05-23T16:08:21.795Z,30.60
2019-05-23T16:10:51.507Z,31.00
2019-05-23T16:13:20.767Z,30.60
2019-05-23T16:15:50.296Z,30.90
2019-05-23T16:18:19.288Z,32.30
2019-05-23T16:20:48.570Z,31.50
2019-05-23T16:23:17.828Z,32.50
2019-05-23T16:25:47.544Z,33.70
2019-05-23T16:28:19.442Z,34.30
2019-05-23T16:30:48.843Z,33.00
2019-05-23T16:33:19.572Z,33.30
2019-05-23T16:35:48.743Z,32.90
2019-05-23T16:38:17.818Z,32.80
2019-05-23T16:40:47.218Z,33.50
2019-05-23T16:43:17.787Z,34.30
2019-05-23T16:45:47.449Z,34.50
2019-05-23T16:48:16.644Z,34.20
2019-05-23T16:50:45.815Z,34.80
2019-05-23T16:53:15.059Z,34.30
2019-05-23T16:56:03.852Z,36.60
2019-05-23T16:58:49.428Z,34.70
2019-05-23T17:01:24.721Z,33.80
2019-05-23T17:04:00.920Z,33.90
2019-05-23T17:06:34.748Z,35.50
2019-05-23T17:09:23.706Z,34.00
2019-05-23T17:12:11.725Z,34.80
2019-05-23T17:14:42.707Z,34.30
2019-05-23T17:17:56.749Z,34.80
2019-05-23T17:20:19.666Z,35.20
2019-05-23T17:23:00.499Z,36.70
2019-05-23T17:25:36.562Z,36.50
2019-05-23T17:28:10.359Z,37.10
2019-05-23T17:30:50.006Z,39.30
2019-05-23T17:33:20.084Z,40.30
2019-05-23T17:35:49.427Z,39.20
2019-05-23T17:38:18.802Z,39.10
2019-05-23T17:40:48.072Z,38.60
2019-05-23T17:43:17.211Z,40.00
2019-05-23T17:45:46.731Z,38.80
2019-05-23T17:48:15.984Z,39.80
2019-05-23T17:50:45.321Z,42.50
2019-05-23T17:53:14.584Z,43.50
2019-05-23T17:55:46.163Z,44.20
2019-05-23T17:58:17.552Z,43.10
2019-05-23T18:00:48.494Z,45.00
2019-05-23T18:03:17.669Z,45.00
2019-05-23T18:05:47.235Z,44.60
2019-05-23T18:08:17.677Z,45.30
2019-05-23T18:10:47.094Z,45.60
2019-05-23T18:13:16.663Z,46.00
2019-05-23T18:15:46.166Z,46.80
2019-05-23T18:18:15.345Z,46.50
2019-05-23T18:20:44.553Z,47.20
2019-05-23T18:23:14.157Z,46.90
2019-05-23T18:25:43.727Z,48.50
2019-05-23T18:28:14.217Z,48.70
2019-05-23T18:30:52.574Z,48.00
2019-05-23T18:33:21.863Z,48.60
2019-05-23T18:35:52.161Z,48.60
2019-05-23T18:38:21.672Z,49.10
2019-05-23T18:41:02.356Z,48.90
2019-05-23T18:43:21.682Z,49.40
2019-05-23T18:45:52.656Z,50.10
2019-05-23T18:48:22.089Z,50.10
2019-05-23T18:50:51.362Z,50.40
2019-05-23T18:53:21.023Z,50.60
2019-05-23T18:55:50.811Z,50.20
2019-05-23T18:58:20.602Z,51.10
2019-05-23T19:01:03.100Z,50.90
2019-05-23T19:03:33.487Z,51.40
2019-05-23T19:06:02.795Z,52.10
2019-05-23T19:08:32.261Z,52.20
2019-05-23T19:11:01.460Z,52.40
2019-05-23T19:13:30.560Z,52.00
2019-05-23T19:16:00.288Z,52.60
2019-05-23T19:18:29.184Z,51.90
2019-05-23T19:20:58.351Z,52.60
2019-05-23T19:23:27.662Z,52.20
2019-05-23T19:25:56.769Z,52.40
2019-05-23T19:28:26.541Z,52.50
2019-05-23T19:30:55.648Z,52.60
2019-05-23T19:33:25.665Z,52.70
2019-05-23T19:35:55.354Z,54.10
2019-05-23T19:38:25.525Z,53.70
2019-05-23T19:40:54.822Z,54.50
2019-05-23T19:43:23.763Z,53.80
2019-05-23T19:45:52.677Z,53.90
2019-05-23T19:48:22.628Z,54.00
2019-05-23T19:50:52.573Z,54.70
2019-05-23T19:53:21.227Z,54.20
2019-05-23T19:55:50.336Z,55.50
2019-05-23T19:58:19.472Z,55.50
2019-05-23T20:00:48.361Z,55.30
2019-05-23T20:03:18.758Z,55.20
2019-05-23T20:05:51.622Z,55.40
2019-05-23T20:08:20.221Z,55.90
2019-05-23T20:10:49.067Z,55.70
2019-05-23T20:13:18.826Z,55.70
2019-05-23T20:15:48.623Z,56.00
2019-05-23T20:18:17.478Z,56.10
2019-05-23T20:20:46.198Z,56.60
2019-05-23T20:23:16.101Z,56.40
2019-05-23T20:25:45.149Z,56.50
2019-05-23T20:28:14.213Z,56.80
2019-05-23T20:30:46.402Z,56.80
2019-05-23T20:33:15.642Z,57.60
2019-05-23T20:35:44.674Z,57.80
2019-05-23T20:38:14.334Z,57.70
2019-05-23T20:40:43.076Z,58.00
2019-05-23T20:43:14.128Z,57.80
2019-05-23T20:45:43.420Z,57.90
2019-05-23T20:48:12.431Z,58.00
2019-05-23T20:50:41.091Z,57.70
2019-05-23T20:53:10.215Z,57.60
2019-05-23T20:55:39.013Z,57.20
2019-05-23T20:58:07.705Z,58.70
2019-05-23T21:00:38.161Z,58.60
2019-05-23T21:03:07.096Z,58.50
2019-05-23T21:05:35.761Z,58.90
2019-05-23T21:08:04.486Z,57.90
2019-05-23T21:10:47.724Z,58.10
2019-05-23T21:13:17.436Z,59.20
2019-05-23T21:15:47.830Z,58.70
2019-05-23T21:18:16.735Z,59.40
2019-05-23T21:20:45.704Z,59.80
2019-05-23T21:23:14.560Z,58.70
2019-05-23T21:25:47.746Z,58.90
2019-05-23T21:28:17.103Z,59.00
2019-05-23T21:30:45.749Z,60.10
2019-05-23T21:33:14.541Z,59.10
2019-05-23T21:35:43.297Z,59.10
2019-05-23T21:38:12.026Z,59.00
2019-05-23T21:40:43.476Z,59.00
2019-05-23T21:43:12.253Z,58.90
2019-05-23T21:45:42.829Z,58.30
2019-05-23T21:48:11.643Z,58.90
2019-05-23T21:50:40.611Z,59.20
2019-05-23T21:53:09.633Z,59.40
2019-05-23T21:55:39.806Z,60.80
2019-05-23T21:58:10.618Z,59.70
2019-05-23T22:00:58.436Z,60.00
2019-05-23T22:03:28.618Z,60.20
2019-05-23T22:05:57.765Z,61.40
2019-05-23T22:08:26.649Z,62.50
2019-05-23T22:10:55.682Z,63.20
2019-05-23T22:13:24.697Z,61.20
2019-05-23T22:15:55.185Z,61.30
2019-05-23T22:18:25.353Z,61.20
2019-05-23T22:20:54.240Z,61.80
2019-05-23T22:23:23.171Z,62.70
2019-05-23T22:25:51.851Z,61.70
2019-05-23T22:28:21.204Z,61.70
2019-05-23T22:30:50.461Z,62.40
2019-05-23T22:33:20.859Z,62.00
2019-05-23T22:35:49.585Z,62.40
2019-05-23T22:38:18.412Z,63.30
2019-05-23T22:40:47.154Z,64.00
2019-05-23T22:43:20.949Z,64.10
2019-05-23T22:45:46.455Z,64.50
2019-05-23T22:48:15.229Z,63.90
2019-05-23T22:50:43.878Z,63.60
2019-05-23T22:53:12.944Z,64.40
2019-05-23T22:55:41.755Z,64.80
2019-05-23T22:58:10.429Z,65.00
2019-05-23T23:00:40.658Z,64.60
2019-05-23T23:03:09.299Z,63.90
2019-05-23T23:05:38.569Z,64.60
2019-05-23T23:08:08.843Z,64.60
2019-05-23T23:10:37.482Z,64.90
2019-05-23T23:13:06.266Z,65.30
2019-05-23T23:15:35.121Z,65.20
2019-05-23T23:18:03.889Z,65.70
2019-05-23T23:20:34.480Z,65.60
2019-05-23T23:23:03.203Z,66.20
2019-05-23T23:25:33.041Z,65.80
2019-05-23T23:28:01.793Z,65.80
2019-05-23T23:30:44.327Z,66.10
2019-05-23T23:33:13.066Z,66.40
2019-05-23T23:35:41.748Z,66.20
2019-05-23T23:38:10.488Z,67.10
2019-05-23T23:40:39.225Z,67.00
2019-05-23T23:43:07.859Z,67.00
2019-05-23T23:45:54.277Z,67.30
2019-05-23T23:48:40.610Z,67.10
2019-05-23T23:51:26.937Z,66.70
2019-05-23T23:54:13.636Z,68.30
2019-05-23T23:57:00.410Z,68.70
2019-05-23T23:59:28.624Z,68.70
